sensor_id;sensor_type;location;lat;lon;timestamp;temperature;humidity
36352;DHT22;22382;44.768;17.206;2022-09-12T00:00:13;15.10;99.90
36352;DHT22;22382;44.768;17.206;2022-09-12T00:02:41;15.10;99.90
36352;DHT22;22382;44.768;17.206;2022-09-12T00:05:08;15.00;99.90
36352;DHT22;22382;44.768;17.206;2022-09-12T00:07:35;14.90;99.90
36352;DHT22;22382;44.768;17.206;2022-09-12T00:10:02;14.90;99.90
36352;DHT22;22382;44.768;17.206;2022-09-12T00:12:29;14.90;99.90
36352;DHT22;22382;44.768;17.206;2022-09-12T00:14:56;14.80;99.90
36352;DHT22;22382;44.768;17.206;2022-09-12T00:17:23;14.80;99.90
36352;DHT22;22382;44.768;17.206;2022-09-12T00:19:50;14.80;99.90
36352;DHT22;22382;44.768;17.206;2022-09-12T00:22:17;14.70;99.90
36352;DHT22;22382;44.768;17.206;2022-09-12T00:24:44;14.70;99.90
36352;DHT22;22382;44.768;17.206;2022-09-12T00:27:11;14.70;99.90
36352;DHT22;22382;44.768;17.206;2022-09-12T00:29:38;14.60;99.90
36352;DHT22;22382;44.768;17.206;2022-09-12T00:32:05;14.60;99.90
36352;DHT22;22382;44.768;17.206;2022-09-12T00:34:32;14.50;99.90
36352;DHT22;22382;44.768;17.206;2022-09-12T00:36:59;14.50;99.90
36352;DHT22;22382;44.768;17.206;2022-09-12T00:39:26;14.40;99.90
36352;DHT22;22382;44.768;17.206;2022-09-12T00:41:53;14.40;99.90
36352;DHT22;22382;44.768;17.206;2022-09-12T00:46:48;14.40;99.90
36352;DHT22;22382;44.768;17.206;2022-09-12T00:49:50;14.40;99.90
36352;DHT22;22382;44.768;17.206;2022-09-12T00:54:58;14.50;99.90
36352;DHT22;22382;44.768;17.206;2022-09-12T00:57:50;14.50;99.90
36352;DHT22;22382;44.768;17.206;2022-09-12T01:00:21;14.50;99.90
36352;DHT22;22382;44.768;17.206;2022-09-12T01:02:54;14.50;99.90
36352;DHT22;22382;44.768;17.206;2022-09-12T01:05:24;14.40;99.90
36352;DHT22;22382;44.768;17.206;2022-09-12T01:07:51;14.40;99.90
36352;DHT22;22382;44.768;17.206;2022-09-12T01:10:19;14.30;99.90
36352;DHT22;22382;44.768;17.206;2022-09-12T01:12:47;14.30;99.90
36352;DHT22;22382;44.768;17.206;2022-09-12T01:15:14;14.20;99.90
36352;DHT22;22382;44.768;17.206;2022-09-12T01:29:09;14.00;99.90
36352;DHT22;22382;44.768;17.206;2022-09-12T01:32:07;14.10;99.90
36352;DHT22;22382;44.768;17.206;2022-09-12T01:34:50;14.00;99.90
36352;DHT22;22382;44.768;17.206;2022-09-12T01:37:45;14.00;99.90
36352;DHT22;22382;44.768;17.206;2022-09-12T01:40:21;13.90;99.90
36352;DHT22;22382;44.768;17.206;2022-09-12T01:48:21;13.80;99.90
36352;DHT22;22382;44.768;17.206;2022-09-12T01:51:15;13.80;99.90
36352;DHT22;22382;44.768;17.206;2022-09-12T01:53:47;13.80;99.90
36352;DHT22;22382;44.768;17.206;2022-09-12T01:56:26;13.90;99.90
36352;DHT22;22382;44.768;17.206;2022-09-12T01:58:57;14.10;99.90
36352;DHT22;22382;44.768;17.206;2022-09-12T02:01:29;14.00;99.90
36352;DHT22;22382;44.768;17.206;2022-09-12T02:04:06;14.00;99.90
36352;DHT22;22382;44.768;17.206;2022-09-12T02:09:16;13.80;99.90
36352;DHT22;22382;44.768;17.206;2022-09-12T02:11:44;13.80;99.90
36352;DHT22;22382;44.768;17.206;2022-09-12T02:14:16;13.70;99.90
36352;DHT22;22382;44.768;17.206;2022-09-12T02:16:51;13.80;99.90
36352;DHT22;22382;44.768;17.206;2022-09-12T02:19:21;13.90;99.90
36352;DHT22;22382;44.768;17.206;2022-09-12T02:22:00;13.90;99.90
36352;DHT22;22382;44.768;17.206;2022-09-12T02:24:32;13.90;99.90
36352;DHT22;22382;44.768;17.206;2022-09-12T02:27:04;14.00;99.90
36352;DHT22;22382;44.768;17.206;2022-09-12T02:29:31;14.00;99.90
36352;DHT22;22382;44.768;17.206;2022-09-12T02:32:04;14.00;99.90
36352;DHT22;22382;44.768;17.206;2022-09-12T02:34:43;13.90;99.90
36352;DHT22;22382;44.768;17.206;2022-09-12T02:39:44;13.90;99.90
36352;DHT22;22382;44.768;17.206;2022-09-12T02:42:12;14.00;99.90
36352;DHT22;22382;44.768;17.206;2022-09-12T02:44:40;14.00;99.90
36352;DHT22;22382;44.768;17.206;2022-09-12T02:47:16;14.00;99.90
36352;DHT22;22382;44.768;17.206;2022-09-12T02:49:44;13.90;99.90
36352;DHT22;22382;44.768;17.206;2022-09-12T02:52:12;13.90;99.90
36352;DHT22;22382;44.768;17.206;2022-09-12T02:54:39;13.90;99.90
36352;DHT22;22382;44.768;17.206;2022-09-12T02:57:19;13.80;99.90
36352;DHT22;22382;44.768;17.206;2022-09-12T02:59:50;13.80;99.90
36352;DHT22;22382;44.768;17.206;2022-09-12T03:02:45;13.70;99.90
36352;DHT22;22382;44.768;17.206;2022-09-12T03:05:40;13.70;99.90
36352;DHT22;22382;44.768;17.206;2022-09-12T03:17:01;13.60;99.90
36352;DHT22;22382;44.768;17.206;2022-09-12T03:19:45;13.50;99.90
36352;DHT22;22382;44.768;17.206;2022-09-12T03:27:19;13.50;99.90
36352;DHT22;22382;44.768;17.206;2022-09-12T03:29:47;13.50;99.90
36352;DHT22;22382;44.768;17.206;2022-09-12T03:32:14;13.50;99.90
36352;DHT22;22382;44.768;17.206;2022-09-12T03:34:41;13.40;99.90
36352;DHT22;22382;44.768;17.206;2022-09-12T03:37:08;13.30;99.90
36352;DHT22;22382;44.768;17.206;2022-09-12T03:39:35;13.30;99.90
36352;DHT22;22382;44.768;17.206;2022-09-12T03:42:02;13.20;99.90
36352;DHT22;22382;44.768;17.206;2022-09-12T03:44:29;13.20;99.90
36352;DHT22;22382;44.768;17.206;2022-09-12T03:46:56;13.20;99.90
36352;DHT22;22382;44.768;17.206;2022-09-12T03:49:23;13.20;99.90
36352;DHT22;22382;44.768;17.206;2022-09-12T03:51:50;13.20;99.90
36352;DHT22;22382;44.768;17.206;2022-09-12T03:54:17;13.20;99.90
36352;DHT22;22382;44.768;17.206;2022-09-12T03:56:44;13.20;99.90
36352;DHT22;22382;44.768;17.206;2022-09-12T03:59:11;13.20;99.90
36352;DHT22;22382;44.768;17.206;2022-09-12T04:01:37;13.20;99.90
36352;DHT22;22382;44.768;17.206;2022-09-12T04:04:04;13.20;99.90
36352;DHT22;22382;44.768;17.206;2022-09-12T04:06:31;13.10;99.90
36352;DHT22;22382;44.768;17.206;2022-09-12T04:08:58;13.20;99.90
36352;DHT22;22382;44.768;17.206;2022-09-12T04:11:25;13.20;99.90
36352;DHT22;22382;44.768;17.206;2022-09-12T04:13:52;13.20;99.90
36352;DHT22;22382;44.768;17.206;2022-09-12T04:16:19;13.30;99.90
36352;DHT22;22382;44.768;17.206;2022-09-12T04:18:47;13.40;99.90
36352;DHT22;22382;44.768;17.206;2022-09-12T04:21:16;13.40;99.90
36352;DHT22;22382;44.768;17.206;2022-09-12T04:23:44;13.30;99.90
36352;DHT22;22382;44.768;17.206;2022-09-12T04:26:11;13.30;99.90
36352;DHT22;22382;44.768;17.206;2022-09-12T04:28:40;13.30;99.90
36352;DHT22;22382;44.768;17.206;2022-09-12T04:31:13;13.30;99.90
36352;DHT22;22382;44.768;17.206;2022-09-12T04:33:41;13.30;99.90
36352;DHT22;22382;44.768;17.206;2022-09-12T04:36:10;13.40;99.90
36352;DHT22;22382;44.768;17.206;2022-09-12T04:38:38;13.40;99.90
36352;DHT22;22382;44.768;17.206;2022-09-12T04:41:17;13.40;99.90
36352;DHT22;22382;44.768;17.206;2022-09-12T04:43:45;13.40;99.90
36352;DHT22;22382;44.768;17.206;2022-09-12T04:46:13;13.40;99.90
36352;DHT22;22382;44.768;17.206;2022-09-12T04:48:41;13.50;99.90
36352;DHT22;22382;44.768;17.206;2022-09-12T04:51:12;13.50;99.90
36352;DHT22;22382;44.768;17.206;2022-09-12T04:53:40;13.60;99.90
36352;DHT22;22382;44.768;17.206;2022-09-12T04:56:09;13.70;99.90
36352;DHT22;22382;44.768;17.206;2022-09-12T04:58:37;13.80;99.90
36352;DHT22;22382;44.768;17.206;2022-09-12T05:01:09;13.80;99.90
36352;DHT22;22382;44.768;17.206;2022-09-12T05:03:38;13.90;99.90
36352;DHT22;22382;44.768;17.206;2022-09-12T05:06:08;14.00;99.90
36352;DHT22;22382;44.768;17.206;2022-09-12T05:08:35;14.00;99.90
36352;DHT22;22382;44.768;17.206;2022-09-12T05:11:10;14.10;99.90
36352;DHT22;22382;44.768;17.206;2022-09-12T05:13:38;14.30;99.90
36352;DHT22;22382;44.768;17.206;2022-09-12T05:16:07;14.40;99.90
36352;DHT22;22382;44.768;17.206;2022-09-12T05:18:36;14.40;99.90
36352;DHT22;22382;44.768;17.206;2022-09-12T05:21:05;14.50;99.90
36352;DHT22;22382;44.768;17.206;2022-09-12T05:23:33;14.70;99.90
36352;DHT22;22382;44.768;17.206;2022-09-12T05:26:01;14.80;99.90
36352;DHT22;22382;44.768;17.206;2022-09-12T05:28:36;15.00;99.90
36352;DHT22;22382;44.768;17.206;2022-09-12T05:33:33;15.20;99.90
36352;DHT22;22382;44.768;17.206;2022-09-12T05:36:01;15.30;99.90
36352;DHT22;22382;44.768;17.206;2022-09-12T05:38:28;15.30;99.90
36352;DHT22;22382;44.768;17.206;2022-09-12T05:41:12;15.40;99.90
36352;DHT22;22382;44.768;17.206;2022-09-12T05:43:46;15.50;99.90
36352;DHT22;22382;44.768;17.206;2022-09-12T05:46:15;15.50;99.90
36352;DHT22;22382;44.768;17.206;2022-09-12T05:48:44;15.70;99.90
36352;DHT22;22382;44.768;17.206;2022-09-12T05:51:34;15.80;99.90
36352;DHT22;22382;44.768;17.206;2022-09-12T05:54:03;15.90;99.90
36352;DHT22;22382;44.768;17.206;2022-09-12T05:56:32;16.10;99.90
36352;DHT22;22382;44.768;17.206;2022-09-12T05:59:02;16.10;99.90
36352;DHT22;22382;44.768;17.206;2022-09-12T06:01:31;16.30;99.90
36352;DHT22;22382;44.768;17.206;2022-09-12T06:04:00;16.30;99.90
36352;DHT22;22382;44.768;17.206;2022-09-12T06:06:29;16.30;99.90
36352;DHT22;22382;44.768;17.206;2022-09-12T06:09:00;16.50;99.90
36352;DHT22;22382;44.768;17.206;2022-09-12T06:11:29;16.60;99.90
36352;DHT22;22382;44.768;17.206;2022-09-12T06:13:57;16.70;99.90
36352;DHT22;22382;44.768;17.206;2022-09-12T06:16:30;16.80;99.90
36352;DHT22;22382;44.768;17.206;2022-09-12T06:18:59;16.80;99.90
36352;DHT22;22382;44.768;17.206;2022-09-12T06:21:27;16.90;99.90
36352;DHT22;22382;44.768;17.206;2022-09-12T06:23:54;16.90;99.90
36352;DHT22;22382;44.768;17.206;2022-09-12T06:26:22;17.10;99.90
36352;DHT22;22382;44.768;17.206;2022-09-12T06:28:53;17.00;99.90
36352;DHT22;22382;44.768;17.206;2022-09-12T06:31:30;17.10;99.90
36352;DHT22;22382;44.768;17.206;2022-09-12T06:34:00;17.30;99.90
36352;DHT22;22382;44.768;17.206;2022-09-12T06:36:30;17.30;99.90
36352;DHT22;22382;44.768;17.206;2022-09-12T06:39:03;17.30;99.90
36352;DHT22;22382;44.768;17.206;2022-09-12T06:41:31;17.30;99.90
36352;DHT22;22382;44.768;17.206;2022-09-12T06:43:59;17.50;99.90
36352;DHT22;22382;44.768;17.206;2022-09-12T06:46:27;17.90;99.90
36352;DHT22;22382;44.768;17.206;2022-09-12T06:48:58;18.00;99.90
36352;DHT22;22382;44.768;17.206;2022-09-12T06:51:27;18.30;99.90
36352;DHT22;22382;44.768;17.206;2022-09-12T06:53:55;18.50;99.90
36352;DHT22;22382;44.768;17.206;2022-09-12T06:56:25;18.50;99.90
36352;DHT22;22382;44.768;17.206;2022-09-12T06:58:54;18.60;99.90
36352;DHT22;22382;44.768;17.206;2022-09-12T07:01:29;18.60;99.90
36352;DHT22;22382;44.768;17.206;2022-09-12T07:03:59;18.80;99.90
36352;DHT22;22382;44.768;17.206;2022-09-12T07:06:28;18.80;99.90
36352;DHT22;22382;44.768;17.206;2022-09-12T07:08:58;18.90;99.90
36352;DHT22;22382;44.768;17.206;2022-09-12T07:11:28;19.10;99.90
36352;DHT22;22382;44.768;17.206;2022-09-12T07:13:58;19.20;99.90
36352;DHT22;22382;44.768;17.206;2022-09-12T07:16:25;19.30;99.90
36352;DHT22;22382;44.768;17.206;2022-09-12T07:18:57;19.50;99.90
36352;DHT22;22382;44.768;17.206;2022-09-12T07:21:25;19.60;99.90
36352;DHT22;22382;44.768;17.206;2022-09-12T07:23:52;19.70;99.90
36352;DHT22;22382;44.768;17.206;2022-09-12T07:26:27;19.70;99.90
36352;DHT22;22382;44.768;17.206;2022-09-12T07:28:55;19.80;99.90
36352;DHT22;22382;44.768;17.206;2022-09-12T07:31:43;20.00;99.90
36352;DHT22;22382;44.768;17.206;2022-09-12T07:34:10;20.10;99.90
36352;DHT22;22382;44.768;17.206;2022-09-12T07:36:37;20.10;99.90
36352;DHT22;22382;44.768;17.206;2022-09-12T07:39:04;20.20;99.90
36352;DHT22;22382;44.768;17.206;2022-09-12T07:41:32;20.30;99.90
36352;DHT22;22382;44.768;17.206;2022-09-12T07:44:02;20.40;99.90
36352;DHT22;22382;44.768;17.206;2022-09-12T07:46:32;20.50;99.90
36352;DHT22;22382;44.768;17.206;2022-09-12T07:49:00;20.50;99.90
36352;DHT22;22382;44.768;17.206;2022-09-12T07:51:28;20.60;99.90
36352;DHT22;22382;44.768;17.206;2022-09-12T07:53:56;20.70;99.90
36352;DHT22;22382;44.768;17.206;2022-09-12T07:56:25;20.70;99.90
36352;DHT22;22382;44.768;17.206;2022-09-12T07:58:57;20.60;99.90
36352;DHT22;22382;44.768;17.206;2022-09-12T08:01:25;20.70;99.90
36352;DHT22;22382;44.768;17.206;2022-09-12T08:03:54;20.70;99.90
36352;DHT22;22382;44.768;17.206;2022-09-12T08:06:23;20.70;99.90
36352;DHT22;22382;44.768;17.206;2022-09-12T08:08:53;20.80;99.90
36352;DHT22;22382;44.768;17.206;2022-09-12T08:11:22;20.40;99.90
36352;DHT22;22382;44.768;17.206;2022-09-12T08:13:49;20.20;99.90
36352;DHT22;22382;44.768;17.206;2022-09-12T08:16:23;20.20;99.90
36352;DHT22;22382;44.768;17.206;2022-09-12T08:18:50;20.50;99.90
36352;DHT22;22382;44.768;17.206;2022-09-12T08:21:25;20.70;99.90
36352;DHT22;22382;44.768;17.206;2022-09-12T08:23:54;20.70;99.90
36352;DHT22;22382;44.768;17.206;2022-09-12T08:26:22;20.90;99.90
36352;DHT22;22382;44.768;17.206;2022-09-12T08:28:50;21.00;99.90
36352;DHT22;22382;44.768;17.206;2022-09-12T08:31:19;21.20;99.90
36352;DHT22;22382;44.768;17.206;2022-09-12T08:33:46;21.40;99.90
36352;DHT22;22382;44.768;17.206;2022-09-12T08:36:22;21.30;99.90
36352;DHT22;22382;44.768;17.206;2022-09-12T08:38:54;21.30;99.90
36352;DHT22;22382;44.768;17.206;2022-09-12T08:41:32;21.10;99.90
36352;DHT22;22382;44.768;17.206;2022-09-12T08:49:59;21.40;99.90
36352;DHT22;22382;44.768;17.206;2022-09-12T08:52:50;21.50;99.30
36352;DHT22;22382;44.768;17.206;2022-09-12T08:55:42;21.40;99.90
36352;DHT22;22382;44.768;17.206;2022-09-12T08:58:20;21.60;99.90
36352;DHT22;22382;44.768;17.206;2022-09-12T09:01:09;21.90;99.40
36352;DHT22;22382;44.768;17.206;2022-09-12T09:09:42;22.40;91.70
36352;DHT22;22382;44.768;17.206;2022-09-12T09:12:32;22.40;98.10
36352;DHT22;22382;44.768;17.206;2022-09-12T09:17:59;22.70;94.40
36352;DHT22;22382;44.768;17.206;2022-09-12T09:23:15;22.80;90.50
36352;DHT22;22382;44.768;17.206;2022-09-12T09:26:05;23.10;85.80
36352;DHT22;22382;44.768;17.206;2022-09-12T09:28:51;23.30;95.80
36352;DHT22;22382;44.768;17.206;2022-09-12T09:31:25;23.30;79.70
36352;DHT22;22382;44.768;17.206;2022-09-12T09:33:53;23.40;89.00
36352;DHT22;22382;44.768;17.206;2022-09-12T09:37:07;23.10;91.30
36352;DHT22;22382;44.768;17.206;2022-09-12T09:45:19;22.90;85.90
36352;DHT22;22382;44.768;17.206;2022-09-12T09:48:03;22.60;80.40
36352;DHT22;22382;44.768;17.206;2022-09-12T09:50:33;22.40;81.10
36352;DHT22;22382;44.768;17.206;2022-09-12T09:53:02;22.30;90.80
36352;DHT22;22382;44.768;17.206;2022-09-12T09:55:36;22.20;90.90
36352;DHT22;22382;44.768;17.206;2022-09-12T09:58:04;22.20;92.00
36352;DHT22;22382;44.768;17.206;2022-09-12T10:00:35;22.50;87.40
36352;DHT22;22382;44.768;17.206;2022-09-12T10:06:31;22.70;82.60
36352;DHT22;22382;44.768;17.206;2022-09-12T10:08:38;22.80;85.90
36352;DHT22;22382;44.768;17.206;2022-09-12T10:13:55;22.80;90.10
36352;DHT22;22382;44.768;17.206;2022-09-12T10:16:27;22.60;87.30
36352;DHT22;22382;44.768;17.206;2022-09-12T10:18:59;22.70;87.30
36352;DHT22;22382;44.768;17.206;2022-09-12T10:21:35;22.70;79.60
36352;DHT22;22382;44.768;17.206;2022-09-12T10:24:26;22.90;74.80
36352;DHT22;22382;44.768;17.206;2022-09-12T10:26:57;22.60;82.00
36352;DHT22;22382;44.768;17.206;2022-09-12T10:29:34;22.90;88.60
36352;DHT22;22382;44.768;17.206;2022-09-12T10:32:06;23.00;82.70
36352;DHT22;22382;44.768;17.206;2022-09-12T10:34:38;23.10;76.80
36352;DHT22;22382;44.768;17.206;2022-09-12T10:37:32;23.40;80.80
36352;DHT22;22382;44.768;17.206;2022-09-12T10:40:02;23.40;81.00
36352;DHT22;22382;44.768;17.206;2022-09-12T10:45:35;23.80;73.50
36352;DHT22;22382;44.768;17.206;2022-09-12T10:48:27;23.80;72.90
36352;DHT22;22382;44.768;17.206;2022-09-12T10:50:57;23.30;74.50
36352;DHT22;22382;44.768;17.206;2022-09-12T10:53:27;23.40;76.90
36352;DHT22;22382;44.768;17.206;2022-09-12T10:59:01;23.60;72.60
36352;DHT22;22382;44.768;17.206;2022-09-12T11:01:44;23.30;78.00
36352;DHT22;22382;44.768;17.206;2022-09-12T11:04:50;23.40;73.00
36352;DHT22;22382;44.768;17.206;2022-09-12T11:07:47;23.10;72.50
36352;DHT22;22382;44.768;17.206;2022-09-12T11:13:24;23.60;70.40
36352;DHT22;22382;44.768;17.206;2022-09-12T11:29:58;24.10;75.50
36352;DHT22;22382;44.768;17.206;2022-09-12T11:43:28;23.50;68.00
36352;DHT22;22382;44.768;17.206;2022-09-12T11:46:22;23.50;69.80
36352;DHT22;22382;44.768;17.206;2022-09-12T11:48:54;23.60;67.90
36352;DHT22;22382;44.768;17.206;2022-09-12T11:51:26;23.70;70.30
36352;DHT22;22382;44.768;17.206;2022-09-12T11:54:11;23.50;74.60
36352;DHT22;22382;44.768;17.206;2022-09-12T11:56:43;23.60;71.60
36352;DHT22;22382;44.768;17.206;2022-09-12T12:02:36;23.50;64.60
36352;DHT22;22382;44.768;17.206;2022-09-12T12:05:16;23.40;64.20
36352;DHT22;22382;44.768;17.206;2022-09-12T12:07:52;23.10;66.20
36352;DHT22;22382;44.768;17.206;2022-09-12T12:12:53;23.10;64.40
36352;DHT22;22382;44.768;17.206;2022-09-12T12:15:22;23.40;69.70
36352;DHT22;22382;44.768;17.206;2022-09-12T12:18:18;23.60;66.10
36352;DHT22;22382;44.768;17.206;2022-09-12T12:20:46;23.80;64.60
36352;DHT22;22382;44.768;17.206;2022-09-12T12:23:32;24.00;67.40
36352;DHT22;22382;44.768;17.206;2022-09-12T12:26:02;24.50;60.70
36352;DHT22;22382;44.768;17.206;2022-09-12T12:28:57;25.00;59.40
36352;DHT22;22382;44.768;17.206;2022-09-12T12:31:24;25.40;59.00
36352;DHT22;22382;44.768;17.206;2022-09-12T12:33:54;25.50;60.90
36352;DHT22;22382;44.768;17.206;2022-09-12T12:36:39;25.30;61.50
36352;DHT22;22382;44.768;17.206;2022-09-12T12:41:59;24.70;57.30
36352;DHT22;22382;44.768;17.206;2022-09-12T12:47:22;24.70;61.80
36352;DHT22;22382;44.768;17.206;2022-09-12T12:52:48;24.70;59.90
36352;DHT22;22382;44.768;17.206;2022-09-12T12:55:36;24.40;60.30
36352;DHT22;22382;44.768;17.206;2022-09-12T12:58:06;24.20;58.80
36352;DHT22;22382;44.768;17.206;2022-09-12T13:00:35;24.20;58.30
36352;DHT22;22382;44.768;17.206;2022-09-12T13:05:53;24.20;57.50
36352;DHT22;22382;44.768;17.206;2022-09-12T13:11:01;24.30;60.90
36352;DHT22;22382;44.768;17.206;2022-09-12T13:13:38;24.30;62.90
36352;DHT22;22382;44.768;17.206;2022-09-12T13:16:09;24.20;61.20
36352;DHT22;22382;44.768;17.206;2022-09-12T13:18:45;24.20;59.50
36352;DHT22;22382;44.768;17.206;2022-09-12T13:21:16;23.90;58.50
36352;DHT22;22382;44.768;17.206;2022-09-12T13:23:57;23.60;58.30
36352;DHT22;22382;44.768;17.206;2022-09-12T13:26:26;23.40;60.30
36352;DHT22;22382;44.768;17.206;2022-09-12T13:29:08;23.20;59.90
36352;DHT22;22382;44.768;17.206;2022-09-12T13:31:36;23.00;61.60
36352;DHT22;22382;44.768;17.206;2022-09-12T13:34:05;23.10;61.70
36352;DHT22;22382;44.768;17.206;2022-09-12T13:39:37;22.80;61.70
36352;DHT22;22382;44.768;17.206;2022-09-12T13:45:02;22.70;63.90
36352;DHT22;22382;44.768;17.206;2022-09-12T13:47:42;22.70;63.80
36352;DHT22;22382;44.768;17.206;2022-09-12T13:50:29;22.70;63.50
36352;DHT22;22382;44.768;17.206;2022-09-12T13:53:00;22.70;63.50
36352;DHT22;22382;44.768;17.206;2022-09-12T13:55:40;22.70;63.80
36352;DHT22;22382;44.768;17.206;2022-09-12T13:58:21;22.60;65.20
36352;DHT22;22382;44.768;17.206;2022-09-12T14:03:41;22.50;64.40
36352;DHT22;22382;44.768;17.206;2022-09-12T14:06:26;22.60;63.40
36352;DHT22;22382;44.768;17.206;2022-09-12T14:08:54;22.70;63.30
36352;DHT22;22382;44.768;17.206;2022-09-12T14:11:28;22.80;63.30
36352;DHT22;22382;44.768;17.206;2022-09-12T14:13:56;23.00;61.70
36352;DHT22;22382;44.768;17.206;2022-09-12T14:16:24;23.10;61.80
36352;DHT22;22382;44.768;17.206;2022-09-12T14:18:55;23.30;63.90
36352;DHT22;22382;44.768;17.206;2022-09-12T14:21:32;23.40;62.40
36352;DHT22;22382;44.768;17.206;2022-09-12T14:24:02;23.40;59.70
36352;DHT22;22382;44.768;17.206;2022-09-12T14:26:35;23.50;60.40
36352;DHT22;22382;44.768;17.206;2022-09-12T14:29:07;23.50;62.00
36352;DHT22;22382;44.768;17.206;2022-09-12T14:31:36;23.50;59.50
36352;DHT22;22382;44.768;17.206;2022-09-12T14:34:14;23.60;58.90
36352;DHT22;22382;44.768;17.206;2022-09-12T14:36:45;23.60;60.10
36352;DHT22;22382;44.768;17.206;2022-09-12T14:39:38;23.30;60.70
36352;DHT22;22382;44.768;17.206;2022-09-12T14:42:18;23.00;60.00
36352;DHT22;22382;44.768;17.206;2022-09-12T14:44:59;23.20;61.00
36352;DHT22;22382;44.768;17.206;2022-09-12T14:47:35;23.40;60.30
36352;DHT22;22382;44.768;17.206;2022-09-12T14:50:20;23.50;60.30
36352;DHT22;22382;44.768;17.206;2022-09-12T14:53:00;23.50;62.80
36352;DHT22;22382;44.768;17.206;2022-09-12T14:55:30;23.60;60.70
36352;DHT22;22382;44.768;17.206;2022-09-12T15:03:28;23.60;61.60
36352;DHT22;22382;44.768;17.206;2022-09-12T15:05:56;23.50;61.60
36352;DHT22;22382;44.768;17.206;2022-09-12T15:08:24;23.50;61.80
36352;DHT22;22382;44.768;17.206;2022-09-12T15:10:51;23.40;63.40
36352;DHT22;22382;44.768;17.206;2022-09-12T15:13:21;23.30;63.80
36352;DHT22;22382;44.768;17.206;2022-09-12T15:15:54;23.30;63.20
36352;DHT22;22382;44.768;17.206;2022-09-12T15:18:26;23.40;63.20
36352;DHT22;22382;44.768;17.206;2022-09-12T15:21:09;23.40;67.50
36352;DHT22;22382;44.768;17.206;2022-09-12T15:23:44;23.40;65.20
36352;DHT22;22382;44.768;17.206;2022-09-12T15:26:16;23.30;64.70
36352;DHT22;22382;44.768;17.206;2022-09-12T15:28:44;23.30;64.90
36352;DHT22;22382;44.768;17.206;2022-09-12T15:31:28;23.30;63.20
36352;DHT22;22382;44.768;17.206;2022-09-12T15:33:57;23.30;65.10
36352;DHT22;22382;44.768;17.206;2022-09-12T15:36:25;23.20;64.20
36352;DHT22;22382;44.768;17.206;2022-09-12T15:38:52;23.10;63.20
36352;DHT22;22382;44.768;17.206;2022-09-12T15:41:22;23.10;66.00
36352;DHT22;22382;44.768;17.206;2022-09-12T15:43:49;23.00;62.00
36352;DHT22;22382;44.768;17.206;2022-09-12T15:46:18;23.00;62.30
36352;DHT22;22382;44.768;17.206;2022-09-12T15:48:46;23.00;61.30
36352;DHT22;22382;44.768;17.206;2022-09-12T15:51:20;22.90;60.40
36352;DHT22;22382;44.768;17.206;2022-09-12T15:53:49;22.90;63.30
36352;DHT22;22382;44.768;17.206;2022-09-12T15:56:17;22.90;64.10
36352;DHT22;22382;44.768;17.206;2022-09-12T15:58:46;22.80;66.10
36352;DHT22;22382;44.768;17.206;2022-09-12T16:01:26;22.80;67.50
36352;DHT22;22382;44.768;17.206;2022-09-12T16:03:53;22.70;69.10
36352;DHT22;22382;44.768;17.206;2022-09-12T16:06:20;22.60;70.20
36352;DHT22;22382;44.768;17.206;2022-09-12T16:08:48;22.50;71.10
36352;DHT22;22382;44.768;17.206;2022-09-12T16:11:21;22.50;67.80
36352;DHT22;22382;44.768;17.206;2022-09-12T16:13:50;22.40;69.50
36352;DHT22;22382;44.768;17.206;2022-09-12T16:16:17;22.30;69.90
36352;DHT22;22382;44.768;17.206;2022-09-12T16:18:44;22.20;71.40
36352;DHT22;22382;44.768;17.206;2022-09-12T16:21:12;22.20;72.10
36352;DHT22;22382;44.768;17.206;2022-09-12T16:23:42;22.00;72.90
36352;DHT22;22382;44.768;17.206;2022-09-12T16:26:11;22.00;75.30
36352;DHT22;22382;44.768;17.206;2022-09-12T16:28:39;21.80;78.10
36352;DHT22;22382;44.768;17.206;2022-09-12T16:31:08;21.80;82.70
36352;DHT22;22382;44.768;17.206;2022-09-12T16:33:37;21.60;87.00
36352;DHT22;22382;44.768;17.206;2022-09-12T16:36:09;21.50;89.40
36352;DHT22;22382;44.768;17.206;2022-09-12T16:38:44;21.30;92.20
36352;DHT22;22382;44.768;17.206;2022-09-12T16:41:13;21.20;93.40
36352;DHT22;22382;44.768;17.206;2022-09-12T16:43:42;21.00;95.40
36352;DHT22;22382;44.768;17.206;2022-09-12T16:46:20;20.90;96.50
36352;DHT22;22382;44.768;17.206;2022-09-12T16:48:49;20.70;98.70
36352;DHT22;22382;44.768;17.206;2022-09-12T16:51:27;20.60;99.50
36352;DHT22;22382;44.768;17.206;2022-09-12T16:53:56;20.40;99.90
36352;DHT22;22382;44.768;17.206;2022-09-12T16:56:24;20.20;99.90
36352;DHT22;22382;44.768;17.206;2022-09-12T16:58:51;20.10;99.90
36352;DHT22;22382;44.768;17.206;2022-09-12T17:01:23;19.90;99.90
36352;DHT22;22382;44.768;17.206;2022-09-12T17:03:55;19.80;99.90
36352;DHT22;22382;44.768;17.206;2022-09-12T17:06:24;19.60;99.90
36352;DHT22;22382;44.768;17.206;2022-09-12T17:08:53;19.40;99.90
36352;DHT22;22382;44.768;17.206;2022-09-12T17:11:24;19.30;99.90
36352;DHT22;22382;44.768;17.206;2022-09-12T17:13:57;19.20;99.90
36352;DHT22;22382;44.768;17.206;2022-09-12T17:16:35;19.00;99.90
36352;DHT22;22382;44.768;17.206;2022-09-12T17:19:04;18.90;99.90
36352;DHT22;22382;44.768;17.206;2022-09-12T17:21:31;18.80;99.90
36352;DHT22;22382;44.768;17.206;2022-09-12T17:23:58;18.70;99.90
36352;DHT22;22382;44.768;17.206;2022-09-12T17:26:26;18.50;99.90
36352;DHT22;22382;44.768;17.206;2022-09-12T17:28:53;18.40;99.90
36352;DHT22;22382;44.768;17.206;2022-09-12T17:31:20;18.40;99.90
36352;DHT22;22382;44.768;17.206;2022-09-12T17:33:48;18.30;99.90
36352;DHT22;22382;44.768;17.206;2022-09-12T17:36:16;18.20;99.90
36352;DHT22;22382;44.768;17.206;2022-09-12T17:38:44;18.10;99.90
36352;DHT22;22382;44.768;17.206;2022-09-12T17:41:17;18.00;99.90
36352;DHT22;22382;44.768;17.206;2022-09-12T17:43:48;18.00;99.90
36352;DHT22;22382;44.768;17.206;2022-09-12T17:46:19;17.90;99.90
36352;DHT22;22382;44.768;17.206;2022-09-12T17:48:54;17.80;99.90
36352;DHT22;22382;44.768;17.206;2022-09-12T17:51:24;17.70;99.90
36352;DHT22;22382;44.768;17.206;2022-09-12T17:53:56;17.60;99.90
36352;DHT22;22382;44.768;17.206;2022-09-12T17:56:29;17.60;99.90
36352;DHT22;22382;44.768;17.206;2022-09-12T17:58:58;17.50;99.90
36352;DHT22;22382;44.768;17.206;2022-09-12T18:01:26;17.40;99.90
36352;DHT22;22382;44.768;17.206;2022-09-12T18:04:12;17.40;99.90
36352;DHT22;22382;44.768;17.206;2022-09-12T18:06:39;17.30;99.90